Time;durP1;ratioP1;P1;durP2;ratioP2;P2;SDS_P1;SDS_P2;PMS_P1;PMS_P2;Temp;Humidity;BMP_temperature;BMP_pressure;BME280_temperature;BME280_humidity;BME280_pressure;Samples;Min_cycle;Max_cycle;Signal;HPM_P1;HPM_P2
2024/02/15 01:12:12;;;;;;;1.70;1.10;;;15.60;99.90;;;15.39;70.17;101411.00;4954729;22;24626199;-36
2024/02/15 01:14:56;;;;;;;2.77;1.20;;;15.30;99.90;;;15.16;71.02;101407.53;5562303;22;98732;-37
2024/02/15 01:18:11;;;;;;;2.17;1.37;;;15.10;99.90;;;15.00;71.61;101414.44;5244955;23;5387218;-34
2024/02/15 01:20:53;;;;;;;3.30;1.60;;;14.90;99.90;;;14.94;71.89;101404.09;5570328;22;97904;-36
2024/02/15 01:23:42;;;;;;;3.30;1.77;;;14.80;99.90;;;14.86;72.36;101407.03;5648416;22;103280;-37
2024/02/15 01:26:18;;;;;;;5.90;1.77;;;14.70;99.90;;;14.85;69.69;101404.44;5665606;23;101111;-34
2024/02/15 01:29:03;;;;;;;1.73;1.27;;;14.70;99.90;;;14.81;71.79;101413.47;5672555;22;97592;-38
2024/02/15 01:31:51;;;;;;;6.57;1.80;;;14.70;99.90;;;14.84;68.71;101411.56;5627083;23;99241;-37
2024/02/15 01:34:23;;;;;;;2.77;1.57;;;14.70;99.90;;;14.85;70.66;101397.34;5764217;23;104253;-35
2024/02/15 01:36:56;;;;;;;3.00;1.63;;;14.70;99.90;;;14.86;70.00;101398.22;5545460;23;102886;-37
2024/02/15 01:39:24;;;;;;;7.53;1.60;;;14.70;99.90;;;14.84;70.75;101403.59;5568907;23;101633;-42
2024/02/15 01:41:58;;;;;;;1.93;1.13;;;14.70;99.90;;;14.82;68.55;101397.47;5704934;23;98967;-38
2024/02/15 01:44:36;;;;;;;1.80;1.20;;;14.60;99.90;;;14.87;67.37;101397.28;5717408;23;103351;-36
2024/02/15 01:47:19;;;;;;;2.37;0.90;;;14.70;99.90;;;14.86;69.34;101390.25;5612364;23;104664;-37
2024/02/15 01:50:08;;;;;;;3.13;1.70;;;14.70;99.90;;;14.87;65.62;101391.97;5804493;22;97599;-37
2024/02/15 01:53:05;;;;;;;2.00;1.40;;;14.70;99.90;;;14.87;67.13;101391.97;5729104;22;98842;-37
2024/02/15 01:55:30;;;;;;;1.43;1.07;;;14.70;99.90;;;14.91;69.82;101388.28;5797785;22;99644;-37
2024/02/15 01:58:15;;;;;;;1.63;1.20;;;14.70;99.90;;;14.88;66.25;101383.94;5862639;22;99959;-37
2024/02/15 02:00:58;;;;;;;1.73;1.20;;;14.70;99.90;;;14.83;71.33;101385.06;5696882;22;99397;-37
2024/02/15 02:03:27;;;;;;;1.07;0.97;;;14.70;99.90;;;14.83;68.22;101379.75;5805329;22;98269;-34
2024/02/15 02:06:11;;;;;;;2.13;1.53;;;14.60;99.90;;;14.85;67.10;101372.59;5735187;22;99797;-38
2024/02/15 02:09:20;;;;;;;2.77;1.20;;;14.60;99.90;;;14.85;70.28;101372.59;5649950;23;100146;-36
2024/02/15 02:11:55;;;;;;;1.87;1.07;;;14.70;99.90;;;14.79;71.22;101379.03;5725360;22;99279;-40
2024/02/15 02:14:31;;;;;;;2.40;1.20;;;14.60;99.90;;;14.71;70.98;101383.78;5718341;22;97942;-37
2024/02/15 02:17:35;;;;;;;3.03;1.17;;;14.60;99.90;;;14.72;72.35;101381.97;5613582;22;105888;-39
2024/02/15 02:20:13;;;;;;;1.97;1.20;;;14.60;99.90;;;14.67;72.87;101384.84;5638908;22;103612;-35
2024/02/15 02:22:40;;;;;;;2.43;1.20;;;14.50;99.90;;;14.68;70.56;101375.09;5600340;22;101455;-35
2024/02/15 02:25:10;;;;;;;1.30;1.10;;;14.50;99.90;;;14.68;72.49;101372.44;5858040;22;97628;-38
2024/02/15 02:27:49;;;;;;;2.73;0.97;;;14.50;99.90;;;14.71;68.80;101369.63;5951124;22;98580;-37
2024/02/15 02:30:45;;;;;;;3.23;0.97;;;14.60;99.90;;;14.71;71.26;101370.50;5962988;22;103469;-38
2024/02/15 02:33:22;;;;;;;6.63;1.43;;;14.60;99.90;;;14.73;70.07;101367.78;5838589;22;105849;-37
2024/02/15 02:35:48;;;;;;;2.43;1.10;;;14.60;99.90;;;14.69;72.13;101368.84;5873155;22;98003;-35
2024/02/15 02:38:37;;;;;;;3.07;1.07;;;14.60;99.90;;;14.72;72.23;101371.38;5915739;22;129301;-36
2024/02/15 02:41:19;;;;;;;4.80;1.23;;;14.60;99.90;;;14.74;71.04;101369.50;6038418;22;102821;-38
2024/02/15 02:43:57;;;;;;;0.70;0.60;;;14.60;99.90;;;14.80;66.21;101356.00;6001677;22;100743;-37
2024/02/15 02:46:28;;;;;;;1.23;1.00;;;14.60;99.90;;;14.85;65.15;101351.34;5967600;22;97653;-41
2024/02/15 02:48:58;;;;;;;1.30;1.03;;;14.70;99.90;;;14.96;62.62;101349.09;6036446;22;101513;-40
2024/02/15 02:51:30;;;;;;;1.87;1.07;;;14.80;99.90;;;14.99;66.47;101346.28;6008463;22;105551;-36
2024/02/15 02:54:06;;;;;;;2.23;0.87;;;14.90;99.90;;;15.06;61.76;101338.94;6135330;22;100764;-35
2024/02/15 02:56:45;;;;;;;1.80;0.90;;;14.90;99.90;;;15.07;66.29;101341.53;5964963;22;97632;-34
2024/02/15 02:59:25;;;;;;;4.33;1.03;;;14.90;99.90;;;15.05;68.05;101345.19;5972858;22;103748;-36
2024/02/15 03:02:00;;;;;;;0.97;0.63;;;14.90;99.90;;;15.07;64.67;101340.66;6026470;22;101856;-37
2024/02/15 03:04:26;;;;;;;2.83;1.33;;;14.90;99.90;;;15.07;64.41;101341.53;6040003;22;97332;-36
2024/02/15 03:06:57;;;;;;;1.60;1.10;;;14.90;99.90;;;15.05;69.10;101338.06;6052799;22;97219;-36
2024/02/15 03:09:33;;;;;;;0.77;0.60;;;14.90;99.90;;;15.04;68.36;101336.31;6032248;22;101593;-37
2024/02/15 03:12:06;;;;;;;1.93;1.20;;;14.90;99.90;;;14.94;70.89;101337.66;6133826;22;103804;-42
2024/02/15 03:14:55;;;;;;;3.97;1.13;;;14.80;99.90;;;14.94;67.87;101329.69;6110572;22;97561;-34
2024/02/15 03:17:28;;;;;;;2.33;1.00;;;14.80;99.90;;;14.95;68.98;101338.53;6091104;22;98109;-36
2024/02/15 03:19:53;;;;;;;5.20;1.40;;;14.80;99.90;;;14.92;69.96;101336.00;6005980;22;101441;-43
2024/02/15 03:22:46;;;;;;;4.80;1.07;;;14.80;99.90;;;14.94;67.12;101335.00;6047909;22;116036;-36
2024/02/15 03:25:25;;;;;;;0.90;0.63;;;14.80;99.90;;;14.92;68.32;101322.72;6034864;22;97452;-37
2024/02/15 03:28:15;;;;;;;3.73;1.40;;;14.80;99.90;;;14.85;70.59;101327.44;5934408;22;97475;-39
2024/02/15 03:30:46;;;;;;;1.90;1.00;;;14.70;99.90;;;14.87;68.79;101318.47;6048962;22;102873;-35
2024/02/15 03:33:26;;;;;;;2.67;1.10;;;14.70;99.90;;;14.83;68.08;101311.56;6137383;22;117982;-37
2024/02/15 03:36:00;;;;;;;3.17;1.30;;;14.70;99.90;;;14.77;71.70;101317.16;6094585;22;97548;-35
2024/02/15 03:38:32;;;;;;;0.80;0.70;;;14.70;99.90;;;14.74;70.09;101319.91;5882387;22;99281;-35
2024/02/15 03:40:58;;;;;;;2.83;0.90;;;14.60;99.90;;;14.73;70.62;101314.66;6033966;22;106330;-34
2024/02/15 03:43:23;;;;;;;4.87;0.90;;;14.60;99.90;;;14.76;70.37;101322.53;5941627;22;99378;-40
2024/02/15 03:45:52;;;;;;;2.63;1.20;;;14.60;99.90;;;14.73;70.51;101319.97;6022354;22;97596;-36
2024/02/15 03:48:23;;;;;;;2.17;1.13;;;14.60;99.90;;;14.70;71.45;101323.63;5976652;22;105666;-38
2024/02/15 03:51:01;;;;;;;3.53;1.53;;;14.60;99.90;;;14.63;71.84;101319.53;6041721;22;103770;-36
2024/02/15 03:53:30;;;;;;;2.30;1.00;;;14.50;99.90;;;14.55;73.04;101314.50;6016688;22;102923;-37
2024/02/15 03:56:08;;;;;;;4.83;1.20;;;14.40;99.90;;;14.59;72.67;101317.91;6136108;22;97500;-34
2024/02/15 03:58:52;;;;;;;3.13;1.23;;;14.40;99.90;;;14.59;70.38;101318.75;5989993;22;99825;-36
2024/02/15 04:01:24;;;;;;;1.53;0.87;;;14.50;99.90;;;14.64;71.56;101320.38;6118903;22;100259;-38
2024/02/15 04:03:50;;;;;;;3.80;1.00;;;14.50;99.90;;;14.69;70.16;101313.06;6094117;22;109898;-34
2024/02/15 04:06:18;;;;;;;3.43;1.23;;;14.50;99.90;;;14.63;72.14;101314.22;6110074;22;97456;-37
2024/02/15 04:08:49;;;;;;;2.27;1.00;;;14.50;99.90;;;14.68;71.54;101321.97;6051657;22;97471;-35
2024/02/15 04:11:16;;;;;;;2.47;1.10;;;14.50;99.90;;;14.66;68.92;101313.22;6002930;22;99337;-35
2024/02/15 04:13:42;;;;;;;1.80;1.10;;;14.50;99.90;;;14.62;72.97;101324.91;6086115;22;103183;-43
2024/02/15 04:16:13;;;;;;;2.67;0.90;;;14.50;99.90;;;14.64;71.47;101320.38;6101164;22;99698;-41
2024/02/15 04:18:57;;;;;;;2.57;1.13;;;14.50;99.90;;;14.65;67.13;101316.81;6036846;22;97571;-35
2024/02/15 04:21:27;;;;;;;1.23;1.00;;;14.50;99.90;;;14.63;70.16;101318.66;6016912;22;97908;-40
2024/02/15 04:24:15;;;;;;;2.20;0.90;;;14.50;99.90;;;14.67;66.59;101312.28;5953804;22;102297;-34
2024/02/15 04:26:45;;;;;;;2.07;0.80;;;14.50;99.90;;;14.63;71.66;101305.38;6095673;22;97830;-37
2024/02/15 04:29:12;;;;;;;2.33;1.23;;;14.50;99.90;;;14.63;70.72;101313.34;5921058;22;106023;-34
2024/02/15 04:31:59;;;;;;;1.47;1.00;;;14.50;99.90;;;14.72;69.15;101308.50;6029626;22;98114;-34
2024/02/15 04:34:34;;;;;;;2.53;1.03;;;14.60;99.90;;;14.74;67.15;101308.41;6121295;22;104123;-36
2024/02/15 04:36:59;;;;;;;1.90;0.93;;;14.60;99.90;;;14.69;71.49;101323.69;5987823;22;109961;-36
2024/02/15 04:39:38;;;;;;;2.00;1.20;;;14.60;99.90;;;14.69;71.55;101323.69;6038802;22;97662;-37
2024/02/15 04:42:18;;;;;;;6.40;1.63;;;14.60;99.90;;;14.69;70.83;101318.38;6125664;22;103639;-35
2024/02/15 04:44:44;;;;;;;2.63;1.30;;;14.60;99.90;;;14.66;72.40;101322.03;6226720;22;105987;-34
2024/02/15 04:47:09;;;;;;;2.60;1.20;;;14.60;99.90;;;14.64;71.21;101315.94;6177924;22;110166;-36
2024/02/15 04:49:40;;;;;;;1.83;1.27;;;14.60;99.90;;;14.70;71.35;101312.16;6086585;22;101931;-35
2024/02/15 04:52:23;;;;;;;2.27;1.10;;;14.60;99.90;;;14.74;70.19;101306.63;6133738;22;104539;-36
2024/02/15 04:54:53;;;;;;;1.70;1.17;;;14.60;99.90;;;14.80;68.36;101310.84;6138461;22;97584;-36
2024/02/15 04:57:30;;;;;;;2.20;1.00;;;14.70;99.90;;;14.82;65.46;101311.63;6069929;22;98548;-37
2024/02/15 04:59:59;;;;;;;0.90;0.80;;;14.70;99.90;;;14.85;66.03;101306.19;6084571;22;97903;-36
2024/02/15 05:02:25;;;;;;;1.37;0.90;;;14.70;99.90;;;14.87;67.60;101304.31;6035636;22;105932;-36
2024/02/15 05:04:56;;;;;;;3.20;1.10;;;14.70;99.90;;;14.85;70.83;101303.53;6048279;22;103452;-37
2024/02/15 05:07:44;;;;;;;2.50;1.30;;;14.70;99.90;;;14.86;66.86;101297.28;6074516;22;97899;-35
2024/02/15 05:10:21;;;;;;;1.30;1.20;;;14.70;99.90;;;14.84;70.67;101299.13;6092964;22;97526;-38
2024/02/15 05:12:50;;;;;;;1.80;1.10;;;14.70;99.90;;;14.82;71.18;101298.34;6076235;22;99326;-36
2024/02/15 05:15:28;;;;;;;1.40;0.97;;;14.70;99.90;;;14.85;69.81;101300.88;5927607;22;98347;-37
2024/02/15 05:17:55;;;;;;;4.07;1.50;;;14.70;99.90;;;14.88;70.25;101303.38;5889771;22;100497;-37
2024/02/15 05:20:30;;;;;;;3.43;1.10;;;14.70;99.90;;;14.86;70.72;101299.94;5908768;22;99496;-36
2024/02/15 05:22:56;;;;;;;4.33;1.37;;;14.70;99.90;;;14.92;68.39;101294.38;6040450;22;101982;-37
2024/02/15 05:25:36;;;;;;;1.47;1.03;;;14.80;99.90;;;14.93;69.13;101297.91;6153181;22;124548;-43
2024/02/15 05:28:09;;;;;;;1.13;0.60;;;14.80;99.90;;;14.91;65.24;101292.66;6091478;22;105976;-36
2024/02/15 05:30:38;;;;;;;0.90;0.70;;;14.80;99.90;;;14.96;64.18;101290.66;6123790;22;97491;-37
2024/02/15 05:33:10;;;;;;;1.33;0.87;;;14.80;99.90;;;14.92;65.16;101283.75;6020303;22;97947;-37
2024/02/15 05:35:41;;;;;;;1.70;0.97;;;14.80;99.90;;;14.85;68.35;101290.25;6039011;22;102380;-38
2024/02/15 05:38:33;;;;;;;2.37;0.80;;;14.80;99.90;;;14.87;70.11;101285.72;6131691;22;97373;-37
2024/02/15 05:41:13;;;;;;;1.20;0.80;;;14.80;99.90;;;14.87;67.02;101291.91;6123432;22;97530;-37
2024/02/15 05:43:52;;;;;;;2.00;1.30;;;14.80;99.90;;;14.83;70.71;101289.44;6045419;22;102123;-37
2024/02/15 05:46:37;;;;;;;1.00;0.90;;;14.70;99.90;;;14.86;69.22;101289.31;6018974;22;99523;-38
2024/02/15 05:49:04;;;;;;;2.23;1.10;;;14.70;99.90;;;14.87;68.66;101291.91;6045993;22;97712;-34
2024/02/15 05:51:31;;;;;;;1.97;1.20;;;14.70;99.90;;;14.94;66.08;101292.50;6099751;22;97387;-36
2024/02/15 05:54:06;;;;;;;1.70;1.03;;;14.80;99.90;;;14.95;65.11;101288.06;5985108;22;102361;-37
2024/02/15 05:56:34;;;;;;;1.50;0.90;;;14.80;99.90;;;14.91;70.92;101292.66;6105052;22;98990;-36
2024/02/15 05:59:16;;;;;;;2.37;1.20;;;14.80;99.90;;;14.86;70.98;101290.16;6120292;22;106139;-37
2024/02/15 06:01:45;;;;;;;2.90;1.30;;;14.80;99.90;;;14.82;71.38;101293.03;6060911;22;97691;-37
2024/02/15 06:04:10;;;;;;;2.30;1.00;;;14.70;99.90;;;14.80;71.45;101284.28;6027237;22;99240;-34
2024/02/15 06:06:53;;;;;;;1.37;1.20;;;14.70;99.90;;;14.78;71.73;101286.13;6033294;22;121327;-35
2024/02/15 06:09:27;;;;;;;2.77;1.40;;;14.70;99.90;;;14.81;68.45;101280.69;6166047;22;97695;-34
2024/02/15 06:12:01;;;;;;;3.93;1.33;;;14.70;99.90;;;14.80;70.18;101278.97;6125391;22;97411;-34
2024/02/15 06:14:27;;;;;;;0.80;0.70;;;14.70;99.90;;;14.90;63.76;101277.66;6144243;22;101976;-35
2024/02/15 06:16:57;;;;;;;1.90;1.07;;;14.70;99.90;;;14.88;65.99;101276.81;5946317;22;120085;-36
2024/02/15 06:19:29;;;;;;;1.50;1.10;;;14.70;99.90;;;14.81;70.45;101281.56;5930904;22;97769;-36
2024/02/15 06:21:54;;;;;;;4.57;1.67;;;14.70;99.90;;;14.80;69.22;101276.31;5997969;22;114952;-36
2024/02/15 06:24:29;;;;;;;3.10;1.37;;;14.70;99.90;;;14.83;70.48;101279.69;6000812;22;103791;-35
2024/02/15 06:26:59;;;;;;;1.40;0.93;;;14.70;99.90;;;14.76;71.18;101280.91;6067640;22;132096;-37
2024/02/15 06:40:44;;;;;;;1.27;1.10;;;14.90;99.90;;;15.07;67.61;101280.41;5844573;22;99314;-34
2024/02/15 06:43:16;;;;;;;6.60;1.83;;;15.00;99.90;;;15.03;68.71;101286.78;6095890;22;99288;-36
2024/02/15 06:45:47;;;;;;;2.10;0.97;;;14.90;99.90;;;15.07;65.03;101272.44;6156339;22;100886;-36
2024/02/15 06:48:34;;;;;;;3.40;1.17;;;14.90;99.90;;;15.06;68.79;101280.50;5867095;22;105948;-37
2024/02/15 06:51:00;;;;;;;1.50;1.30;;;15.00;99.90;;;14.99;69.68;101287.84;6096232;22;97182;-35
2024/02/15 06:53:35;;;;;;;3.50;1.30;;;14.90;99.90;;;14.95;70.05;101286.25;6032042;22;105589;-37
2024/02/15 06:56:02;;;;;;;3.47;1.20;;;14.80;99.90;;;14.88;70.95;101282.13;5942201;22;104973;-37
2024/02/15 06:58:27;;;;;;;0.97;0.57;;;14.80;99.90;;;14.90;68.91;101285.63;6011172;22;104033;-36
2024/02/15 07:00:53;;;;;;;2.10;1.17;;;14.80;99.90;;;14.93;68.66;101285.47;6073262;22;99543;-36
2024/02/15 07:03:22;;;;;;;2.23;1.27;;;14.80;99.90;;;14.93;69.33;101285.47;6022210;22;98645;-37
2024/02/15 07:05:56;;;;;;;1.93;1.37;;;14.80;99.90;;;14.88;70.11;101296.28;6089781;22;97440;-36
2024/02/15 07:08:36;;;;;;;3.20;1.10;;;14.80;99.90;;;14.84;71.64;101302.66;5991934;22;104546;-36
2024/02/15 07:11:11;;;;;;;1.10;0.80;;;14.80;99.90;;;14.84;71.86;101301.78;6051226;22;97404;-36
2024/02/15 07:13:40;;;;;;;1.30;0.80;;;14.80;99.90;;;14.93;65.25;101289.94;6090491;22;97518;-36
2024/02/15 07:16:15;;;;;;;4.00;1.17;;;14.80;99.90;;;14.99;67.74;101290.50;5982862;22;99663;-37
2024/02/15 07:18:41;;;;;;;1.90;1.07;;;14.90;99.90;;;15.04;68.89;101293.81;5976591;22;98688;-35
2024/02/15 07:21:11;;;;;;;2.23;0.67;;;15.00;99.90;;;15.03;65.78;101294.75;6066604;22;97925;-35
2024/02/15 07:23:38;;;;;;;2.57;1.10;;;15.00;99.90;;;15.09;66.78;101291.84;6055127;22;97541;-38
2024/02/15 07:26:04;;;;;;;2.40;0.90;;;15.00;99.90;;;15.11;62.23;101284.66;6021233;22;98796;-33
2024/02/15 07:28:50;;;;;;;3.27;1.00;;;15.10;99.90;;;15.18;64.49;101291.41;5896753;22;97828;-35
2024/02/15 07:31:44;;;;;;;0.90;0.70;;;15.10;99.90;;;15.17;66.94;101288.81;5957583;22;98069;-37
2024/02/15 07:34:26;;;;;;;1.87;0.70;;;15.10;99.90;;;15.28;62.24;101291.00;6052988;22;105311;-37
2024/02/15 07:36:57;;;;;;;2.37;1.13;;;15.20;99.90;;;15.29;62.53;101293.59;5997376;22;105339;-36
2024/02/15 07:39:44;;;;;;;1.43;1.00;;;15.30;99.90;;;15.34;66.75;101296.06;5939838;22;102743;-37
2024/02/15 07:42:25;;;;;;;5.07;1.07;;;15.40;99.90;;;15.40;61.66;101295.78;5968223;22;97613;-34
2024/02/15 07:45:07;;;;;;;1.03;0.50;;;15.50;99.90;;;15.49;59.66;101290.03;5730041;22;97285;-37
2024/02/15 07:47:51;;;;;;;0.37;0.30;;;15.50;99.90;;;15.57;59.71;101287.88;5625323;22;102301;-34
2024/02/15 07:50:36;;;;;;;0.70;0.43;;;15.70;99.90;;;15.64;61.00;101292.03;5588454;22;98853;-38
2024/02/15 07:53:28;;;;;;;1.13;0.70;;;15.80;99.90;;;15.70;60.06;101299.69;5715163;23;99159;-38
2024/02/15 07:56:21;;;;;;;5.83;0.83;;;15.80;99.90;;;15.65;64.39;101299.06;5766510;22;107872;-37
2024/02/15 07:58:59;;;;;;;3.37;0.97;;;15.80;99.90;;;15.69;59.26;101295.31;5663419;22;105927;-36
2024/02/15 08:02:01;;;;;;;3.73;1.20;;;15.80;99.90;;;15.79;59.00;101292.25;5756081;22;133176;-37
2024/02/15 08:08:12;;;;;;;2.43;0.77;;;16.00;99.90;;;15.90;58.03;101292.56;5686384;22;98486;-38
2024/02/15 08:10:45;;;;;;;2.03;0.73;;;16.00;99.90;;;15.93;61.17;101297.78;5675584;22;102837;-41
2024/02/15 08:13:29;;;;;;;1.87;0.90;;;16.10;99.90;;;15.96;59.84;101297.63;5588326;23;98697;-37
2024/02/15 08:16:29;;;;;;;1.37;0.93;;;16.10;99.90;;;15.97;58.63;101297.53;5548513;22;98710;-38
2024/02/15 08:19:08;;;;;;;1.70;0.90;;;16.10;99.90;;;15.97;60.47;101302.00;5670450;22;99724;-38
2024/02/15 08:22:01;;;;;;;0.90;0.60;;;16.10;99.90;;;16.01;57.56;101298.25;5769913;22;102592;-37
2024/02/15 08:24:43;;;;;;;1.80;1.00;;;16.20;99.90;;;15.99;62.31;101290.34;5662081;23;105734;-38
2024/02/15 08:27:43;;;;;;;0.70;0.60;;;16.20;99.90;;;15.99;62.89;101294.81;5575208;22;98015;-37
2024/02/15 08:30:51;;;;;;;4.13;1.20;;;16.10;99.90;;;15.99;61.95;101289.47;5642494;22;98151;-42
2024/02/15 08:34:23;;;;;;;1.40;0.60;;;16.10;99.90;;;16.02;61.56;101290.19;5580407;23;99425;-37
2024/02/15 08:37:18;;;;;;;2.93;1.00;;;16.20;99.90;;;16.00;59.93;101284.09;5525911;23;101231;-38
2024/02/15 08:40:01;;;;;;;1.53;0.80;;;16.20;99.90;;;16.02;57.65;101278.69;5505516;23;99850;-37
2024/02/15 08:43:15;;;;;;;0.40;0.40;;;16.20;99.90;;;16.03;57.43;101272.41;5674077;22;99634;-36
2024/02/15 08:49:22;;;;;;;2.30;0.83;;;16.20;99.90;;;16.02;57.69;101257.41;5669648;23;106905;-38
2024/02/15 08:52:51;;;;;;;1.33;0.80;;;16.20;99.90;;;16.06;56.98;101254.53;5423915;23;98954;-38
2024/02/15 08:55:28;;;;;;;3.50;0.60;;;16.20;99.90;;;16.06;57.23;101265.19;5907458;22;99220;-36
2024/02/15 08:58:40;;;;;;;3.80;1.00;;;16.30;99.90;;;16.10;56.97;101257.91;5869182;22;102260;-38
2024/02/15 09:01:22;;;;;;;0.90;0.60;;;16.30;99.90;;;16.04;61.76;101260.84;5646818;22;102001;-36
2024/02/15 09:04:04;;;;;;;4.17;0.93;;;16.30;99.90;;;16.06;58.66;101248.34;5711992;22;98408;-36
2024/02/15 09:06:37;;;;;;;1.80;0.87;;;16.20;99.90;;;16.07;59.52;101255.41;5646986;22;97810;-36
2024/02/15 09:09:11;;;;;;;2.47;0.87;;;16.20;99.90;;;16.05;58.03;101251.91;5851576;22;105440;-38
2024/02/15 09:11:51;;;;;;;1.40;0.93;;;16.20;99.90;;;16.06;61.85;101251.00;5947955;22;103115;-41
2024/02/15 09:14:25;;;;;;;0.97;0.83;;;16.20;99.90;;;15.73;60.17;101254.34;5812798;22;99192;-44
2024/02/15 09:16:54;;;;;;;3.23;1.20;;;16.00;99.90;;;15.51;66.88;101240.31;5893495;22;102396;-37
2024/02/15 09:19:25;;;;;;;4.37;1.27;;;15.80;99.90;;;15.73;63.81;101246.34;5882167;22;100570;-37
2024/02/15 09:21:53;;;;;;;2.27;0.97;;;15.80;99.90;;;15.71;64.24;101248.22;5916218;22;125435;-43
2024/02/15 09:24:28;;;;;;;1.10;0.67;;;15.90;99.90;;;15.79;61.63;101252.34;5900836;22;98682;-37
2024/02/15 09:27:12;;;;;;;2.10;0.90;;;15.90;99.90;;;15.85;61.38;101249.38;5928335;22;99964;-39
2024/02/15 09:29:43;;;;;;;1.77;1.10;;;16.00;99.90;;;15.83;65.63;101245.94;5832440;22;106089;-40
2024/02/15 09:35:35;;;;;;;2.80;1.10;;;15.90;99.90;;;15.80;63.37;101251.41;5968479;22;97911;-37
2024/02/15 09:38:09;;;;;;;6.03;0.73;;;15.90;99.90;;;15.79;63.25;101260.31;5890409;22;99695;-34
2024/02/15 09:40:46;;;;;;;4.57;1.53;;;15.90;99.90;;;15.69;63.10;101263.41;6006787;22;99897;-38
2024/02/15 09:43:20;;;;;;;1.07;0.87;;;15.80;99.90;;;15.80;63.15;101262.03;5938207;22;101657;-37
2024/02/15 09:45:53;;;;;;;2.13;0.80;;;15.90;99.90;;;15.87;62.94;101264.31;5806188;22;98175;-43
2024/02/15 09:48:23;;;;;;;7.77;1.40;;;15.90;99.90;;;15.80;66.59;101264.72;5865672;22;98069;-39
2024/02/15 09:51:21;;;;;;;1.40;0.80;;;15.90;99.90;;;15.88;59.95;101259.84;5920090;22;102280;-37
2024/02/15 09:54:36;;;;;;;;;;;;;;;;;;;;;
2024/02/15 10:04:42;;;;;;;1.03;0.80;;;16.00;99.90;;;15.84;59.80;101242.34;5427731;23;1266908;-38
2024/02/15 10:08:31;;;;;;;4.67;1.10;;;15.90;99.90;;;15.84;61.04;101250.31;5595867;23;104282;-37
2024/02/15 10:12:00;;;;;;;1.70;0.70;;;15.90;99.90;;;15.80;65.65;101248.75;5509039;23;98677;-38
2024/02/15 10:15:12;;;;;;;2.20;0.70;;;15.90;99.90;;;15.81;61.16;101242.47;5499906;23;98511;-37
2024/02/15 10:18:45;;;;;;;3.60;1.27;;;15.90;99.90;;;15.80;66.20;101246.09;5489531;23;101864;-38
2024/02/15 10:21:43;;;;;;;;;;;;;;;;;;;;;
2024/02/15 10:24:27;;;;;;;3.93;0.80;;;15.90;99.90;;;15.66;69.77;101244.09;5832391;23;115403;-36
2024/02/15 10:27:06;;;;;;;1.00;0.63;;;15.80;99.90;;;15.73;65.59;101251.69;5947170;22;106105;-36
2024/02/15 10:29:40;;;;;;;0.80;0.40;;;15.80;99.90;;;15.74;60.59;101242.75;6126532;22;103958;-35
2024/02/15 10:32:10;;;;;;;1.10;0.80;;;15.80;99.90;;;15.76;61.48;101242.69;6045077;22;104784;-36
2024/02/15 10:34:49;;;;;;;0.53;0.53;;;15.90;99.90;;;15.74;60.51;101250.75;5994896;22;97270;-34
2024/02/15 10:37:24;;;;;;;9.87;1.43;;;15.80;99.90;;;15.79;69.08;101242.56;5966310;22;99233;-35
2024/02/15 10:40:09;;;;;;;0.83;0.70;;;15.90;99.90;;;15.85;66.21;101238.72;5985835;22;129623;-40
2024/02/15 10:42:41;;;;;;;1.00;0.60;;;15.90;99.90;;;15.89;58.94;101232.31;5885568;22;97759;-38
2024/02/15 10:45:10;;;;;;;1.67;0.60;;;16.00;99.90;;;15.94;59.81;101238.31;6060656;22;97092;-38
2024/02/15 10:47:40;;;;;;;1.90;0.70;;;16.10;99.90;;;16.02;61.39;101236.09;5859708;22;97267;-35
2024/02/15 10:50:21;;;;;;;2.23;0.70;;;16.20;99.90;;;16.04;58.41;101236.88;5987702;22;98059;-37
2024/02/15 10:53:26;;;;;;;4.73;0.80;;;16.20;99.90;;;16.10;60.61;101228.63;5745259;22;101651;-37
2024/02/15 10:56:06;;;;;;;2.87;0.77;;;16.30;99.90;;;16.11;58.56;101222.34;6078213;22;97350;-35
2024/02/15 10:59:41;;;;;;;0.77;0.60;;;16.30;99.90;;;16.10;60.70;101220.63;5939052;22;97943;-36
2024/02/15 11:03:10;;;;;;;5.73;0.90;;;16.30;99.90;;;16.12;68.26;101218.75;5539763;22;98270;-37
2024/02/15 11:06:12;;;;;;;3.47;0.80;;;16.30;99.90;;;16.14;64.72;101218.69;6021746;22;102270;-37
2024/02/15 11:08:51;;;;;;;2.73;1.17;;;16.30;99.90;;;16.15;59.88;101215.94;5836331;22;97232;-38
2024/02/15 11:11:26;;;;;;;2.57;0.70;;;16.30;99.90;;;16.16;59.61;101215.00;5925545;23;98111;-35
2024/02/15 11:14:28;;;;;;;1.37;0.70;;;16.40;99.90;;;16.22;65.79;101201.41;6093494;22;97891;-36
2024/02/15 11:17:06;;;;;;;1.40;0.90;;;16.40;99.90;;;16.22;59.39;101201.41;6037880;22;104145;-36
2024/02/15 11:19:50;;;;;;;0.90;0.70;;;16.40;99.90;;;16.29;58.51;101196.59;6050382;22;101876;-36
2024/02/15 11:22:24;;;;;;;1.90;0.90;;;16.50;99.90;;;16.33;67.06;101204.34;6074001;22;101941;-38
2024/02/15 11:24:53;;;;;;;4.80;0.60;;;16.60;99.90;;;16.34;59.72;101190.09;6014052;22;98890;-38
2024/02/15 11:27:40;;;;;;;3.53;1.00;;;16.60;99.90;;;16.39;65.38;101187.22;6016585;22;97672;-37
2024/02/15 11:30:45;;;;;;;1.40;0.70;;;16.60;99.90;;;16.41;64.72;101189.81;6004726;22;97310;-36
2024/02/15 11:33:35;;;;;;;3.27;1.27;;;16.60;99.90;;;16.43;62.28;101178.13;5997973;22;97076;-37
2024/02/15 11:36:42;;;;;;;0.93;0.80;;;16.70;99.90;;;16.45;60.70;101175.38;5945447;22;99518;-36
2024/02/15 11:40:04;;;;;;;3.10;0.90;;;16.70;99.90;;;16.44;57.22;101169.19;6039432;22;102205;-37
2024/02/15 11:42:37;;;;;;;0.60;0.40;;;16.70;99.90;;;16.43;56.57;101174.59;6080591;22;99584;-43
2024/02/15 11:45:19;;;;;;;1.07;0.87;;;16.70;99.90;;;16.44;59.58;101171.00;6034549;22;99448;-38
2024/02/15 11:47:56;;;;;;;1.07;0.70;;;16.80;99.90;;;16.48;57.19;101159.25;5961197;22;99109;-37
2024/02/15 11:50:58;;;;;;;2.13;0.83;;;16.80;99.90;;;16.52;59.91;101160.81;5852041;22;101394;-39
2024/02/15 11:53:29;;;;;;;1.00;0.50;;;16.80;99.90;;;16.52;59.99;101155.50;5964348;22;98292;-37
2024/02/15 11:56:10;;;;;;;0.93;0.60;;;16.80;99.90;;;16.57;62.77;101153.44;6021523;22;97774;-38
2024/02/15 11:58:52;;;;;;;1.33;1.00;;;16.90;99.90;;;16.54;60.52;101153.63;5962392;22;101374;-35
2024/02/15 12:19:50;;;;;;;;;;;;;;;;;;;;;
2024/02/15 12:22:50;;;;;;;1.40;0.33;;;16.80;99.90;;;16.55;57.29;101134.03;5591892;22;133599;-38
2024/02/15 12:25:20;;;;;;;0.93;0.70;;;16.80;99.90;;;16.56;56.37;101125.09;5811290;22;102809;-36
2024/02/15 12:28:19;;;;;;;3.10;0.80;;;16.80;99.90;;;16.60;58.95;101121.31;5974813;22;97296;-38
2024/02/15 12:31:02;;;;;;;3.60;1.07;;;16.90;99.90;;;16.61;62.20;101115.91;6003376;22;105274;-37
2024/02/15 12:33:46;;;;;;;2.53;0.90;;;16.90;99.90;;;16.62;62.75;101108.78;5935076;22;102935;-38
2024/02/15 12:36:42;;;;;;;3.27;0.87;;;16.90;99.90;;;16.64;64.50;101113.09;5801138;22;103273;-37
2024/02/15 12:39:16;;;;;;;0.60;0.40;;;16.90;99.90;;;16.60;56.92;101110.66;5768715;22;97646;-38
2024/02/15 12:42:03;;;;;;;0.40;0.30;;;16.90;99.90;;;16.56;56.09;101103.78;5744209;23;98222;-38
2024/02/15 12:44:34;;;;;;;0.80;0.60;;;16.80;99.90;;;16.58;55.81;101105.44;5827701;22;102514;-39
2024/02/15 12:47:06;;;;;;;1.83;0.60;;;16.90;99.90;;;16.60;58.02;101100.00;6037851;22;101053;-38
2024/02/15 12:49:43;;;;;;;1.87;0.87;;;16.90;99.90;;;16.65;59.65;101103.31;5893288;22;98463;-37
2024/02/15 12:52:43;;;;;;;3.10;1.00;;;16.90;99.90;;;16.63;58.50;101084.72;5934446;22;99669;-35
2024/02/15 12:55:26;;;;;;;3.70;1.17;;;16.90;99.90;;;16.68;62.86;101087.19;5995336;22;104607;-38
2024/02/15 12:57:57;;;;;;;0.70;0.50;;;17.00;99.90;;;16.62;57.40;101079.47;6043922;22;98780;-36
2024/02/15 13:00:39;;;;;;;1.77;0.90;;;17.00;99.90;;;16.67;58.33;101077.47;6051189;22;98231;-38
2024/02/15 13:03:14;;;;;;;1.63;0.80;;;17.00;99.90;;;16.68;60.29;101078.34;5930403;22;97496;-37
2024/02/15 13:05:45;;;;;;;0.60;0.47;;;17.00;99.90;;;16.63;55.78;101067.88;5995702;22;99656;-37